PGT1794 ESSA-LTFJ
Flight info
| Callsign | PGT1794 |
|---|---|
| Flight time | N/A |
| Altitude | 36000 |
| Route | BABAP P156 NEKLA DCT LITPA DCT IRZUK DCT BOKSU DCT TOXAR DCT ROBTU DCT KENIN DCT RONBU DCT BUVAK DCT RIXEN L620 GINLI |
| Aircraft | A320/M-SDE3FGHIRWY/LB1 |
Departure
| Time | N/A |
|---|---|
| Airport | Stockholm-Arlanda Airport (ESSA) |
Arrival
| Time | 2026-05-03 20:50 |
|---|---|
| Airport | Istanbul Sabiha Gökçen International Airport (LTFJ) |
| Time | Latitude | Longitude | Altitude | Speed | Heading |
|---|---|---|---|---|---|
| 2026-05-03 20:15 | 43.23985 | 27.22017 | 36144 ft | 458 kts | 146° |
| 2026-05-03 20:15 | 43.21310 | 27.24358 | 35882 ft | 454 kts | 146° |
| 2026-05-03 20:15 | 43.18664 | 27.26675 | 35358 ft | 450 kts | 146° |
| 2026-05-03 20:15 | 43.16034 | 27.28977 | 34772 ft | 447 kts | 146° |
| 2026-05-03 20:16 | 43.13417 | 27.31264 | 34173 ft | 445 kts | 147° |
| 2026-05-03 20:16 | 43.10811 | 27.33536 | 33447 ft | 443 kts | 147° |
| 2026-05-03 20:16 | 43.08204 | 27.35800 | 32698 ft | 442 kts | 147° |
| 2026-05-03 20:16 | 43.05646 | 27.38017 | 31976 ft | 440 kts | 147° |
| 2026-05-03 20:17 | 43.03060 | 27.40260 | 31244 ft | 438 kts | 147° |
| 2026-05-03 20:17 | 43.00517 | 27.42518 | 30565 ft | 434 kts | 145° |
| 2026-05-03 20:17 | 42.98203 | 27.45141 | 30190 ft | 427 kts | 137° |
| 2026-05-03 20:18 | 42.94183 | 27.51081 | 30125 ft | 426 kts | 134° |
| 2026-05-03 20:18 | 42.92184 | 27.54052 | 29848 ft | 423 kts | 134° |
| 2026-05-03 20:18 | 42.90184 | 27.57015 | 28747 ft | 428 kts | 134° |
| 2026-05-03 20:18 | 42.88153 | 27.60023 | 28291 ft | 434 kts | 134° |
| 2026-05-03 20:19 | 42.86120 | 27.63033 | 28085 ft | 439 kts | 134° |
| 2026-05-03 20:19 | 42.82012 | 27.69130 | 28115 ft | 433 kts | 134° |
| 2026-05-03 20:20 | 42.77942 | 27.75166 | 28120 ft | 432 kts | 134° |
| 2026-05-03 20:20 | 42.73879 | 27.81183 | 28115 ft | 432 kts | 134° |
| 2026-05-03 20:21 | 42.69810 | 27.87198 | 28119 ft | 432 kts | 134° |
| 2026-05-03 20:21 | 42.65748 | 27.93167 | 28113 ft | 429 kts | 134° |
| 2026-05-03 20:22 | 42.61705 | 27.99110 | 28107 ft | 428 kts | 134° |
| 2026-05-03 20:22 | 42.57687 | 28.05014 | 28101 ft | 429 kts | 134° |
| 2026-05-03 20:23 | 42.53633 | 28.10948 | 28097 ft | 428 kts | 134° |
| 2026-05-03 20:23 | 42.49587 | 28.16861 | 28097 ft | 427 kts | 134° |
| 2026-05-03 20:24 | 42.45539 | 28.22769 | 28090 ft | 427 kts | 134° |
| 2026-05-03 20:24 | 42.41492 | 28.28651 | 28089 ft | 427 kts | 134° |
| 2026-05-03 20:25 | 42.37441 | 28.34535 | 28087 ft | 427 kts | 134° |
| 2026-05-03 20:25 | 42.33392 | 28.40397 | 28082 ft | 426 kts | 134° |
| 2026-05-03 20:26 | 42.29367 | 28.46218 | 28075 ft | 426 kts | 134° |
| 2026-05-03 20:26 | 42.27345 | 28.49136 | 27852 ft | 423 kts | 133° |
| 2026-05-03 20:26 | 42.25334 | 28.52033 | 26704 ft | 426 kts | 133° |
| 2026-05-03 20:26 | 42.23289 | 28.54981 | 25647 ft | 434 kts | 132° |
| 2026-05-03 20:27 | 42.21225 | 28.57957 | 25774 ft | 438 kts | 133° |
| 2026-05-03 20:27 | 42.19136 | 28.60966 | 25947 ft | 441 kts | 133° |
| 2026-05-03 20:27 | 42.17029 | 28.63996 | 26073 ft | 444 kts | 133° |
| 2026-05-03 20:27 | 42.14916 | 28.67026 | 26064 ft | 444 kts | 133° |
| 2026-05-03 20:28 | 42.12786 | 28.70034 | 26065 ft | 443 kts | 136° |
| 2026-05-03 20:28 | 42.10400 | 28.72660 | 26065 ft | 443 kts | 145° |
| 2026-05-03 20:28 | 42.07720 | 28.74704 | 26065 ft | 445 kts | 154° |
| 2026-05-03 20:28 | 42.04818 | 28.76131 | 25770 ft | 443 kts | 162° |
| 2026-05-03 20:29 | 42.01805 | 28.76905 | 24625 ft | 449 kts | 171° |
| 2026-05-03 20:29 | 41.98596 | 28.77073 | 23249 ft | 461 kts | 176° |
| 2026-05-03 20:29 | 41.95425 | 28.77159 | 22132 ft | 462 kts | 176° |
| 2026-05-03 20:29 | 41.92203 | 28.77245 | 21184 ft | 461 kts | 176° |
| 2026-05-03 20:30 | 41.89017 | 28.77341 | 20399 ft | 457 kts | 176° |
| 2026-05-03 20:30 | 41.85863 | 28.77452 | 19598 ft | 454 kts | 175° |
| 2026-05-03 20:30 | 41.82715 | 28.77633 | 18791 ft | 450 kts | 171° |
| 2026-05-03 20:30 | 41.79647 | 28.78290 | 18053 ft | 445 kts | 167° |
| 2026-05-03 20:31 | 41.76607 | 28.78979 | 17235 ft | 442 kts | 166° |
| 2026-05-03 20:31 | 41.73605 | 28.79661 | 16497 ft | 438 kts | 167° |
| 2026-05-03 20:31 | 41.70611 | 28.80343 | 15810 ft | 434 kts | 167° |
| 2026-05-03 20:31 | 41.67654 | 28.81016 | 15140 ft | 429 kts | 166° |
| 2026-05-03 20:32 | 41.64722 | 28.81685 | 14457 ft | 425 kts | 167° |
| 2026-05-03 20:32 | 41.61857 | 28.82338 | 13827 ft | 421 kts | 167° |
| 2026-05-03 20:32 | 41.58988 | 28.82994 | 13046 ft | 418 kts | 167° |
| 2026-05-03 20:32 | 41.56130 | 28.83649 | 12293 ft | 415 kts | 167° |
| 2026-05-03 20:33 | 41.53304 | 28.84295 | 11614 ft | 410 kts | 166° |
| 2026-05-03 20:33 | 41.50503 | 28.84935 | 10907 ft | 406 kts | 167° |
| 2026-05-03 20:33 | 41.47733 | 28.85567 | 10197 ft | 402 kts | 167° |
| 2026-05-03 20:33 | 41.45002 | 28.86187 | 9775 ft | 391 kts | 167° |
| 2026-05-03 20:34 | 41.42382 | 28.86773 | 9653 ft | 371 kts | 167° |
| 2026-05-03 20:34 | 41.39907 | 28.87323 | 9513 ft | 350 kts | 166° |
| 2026-05-03 20:34 | 41.37569 | 28.87845 | 9382 ft | 332 kts | 166° |
| 2026-05-03 20:34 | 41.35348 | 28.88346 | 9258 ft | 316 kts | 166° |
| 2026-05-03 20:35 | 41.33227 | 28.88827 | 9102 ft | 303 kts | 166° |
| 2026-05-03 20:35 | 41.31191 | 28.89289 | 8972 ft | 291 kts | 165° |
| 2026-05-03 20:35 | 41.29255 | 28.89731 | 8627 ft | 277 kts | 165° |
| 2026-05-03 20:35 | 41.27369 | 28.90166 | 7998 ft | 274 kts | 165° |
| 2026-05-03 20:36 | 41.25515 | 28.90593 | 7388 ft | 272 kts | 165° |
| 2026-05-03 20:36 | 41.23656 | 28.91018 | 6771 ft | 271 kts | 165° |
| 2026-05-03 20:36 | 41.21808 | 28.91437 | 6175 ft | 269 kts | 165° |
| 2026-05-03 20:36 | 41.19968 | 28.91854 | 5535 ft | 267 kts | 165° |
| 2026-05-03 20:37 | 41.18188 | 28.92249 | 5241 ft | 247 kts | 165° |
| 2026-05-03 20:37 | 41.16548 | 28.92604 | 4785 ft | 234 kts | 165° |
| 2026-05-03 20:37 | 41.14956 | 28.92960 | 4196 ft | 231 kts | 164° |
| 2026-05-03 20:37 | 41.13381 | 28.93318 | 3978 ft | 230 kts | 164° |
| 2026-05-03 20:38 | 41.11806 | 28.93680 | 3979 ft | 232 kts | 164° |
| 2026-05-03 20:38 | 41.10215 | 28.94044 | 3968 ft | 232 kts | 164° |
| 2026-05-03 20:38 | 41.08617 | 28.94406 | 3978 ft | 233 kts | 164° |
| 2026-05-03 20:38 | 41.07019 | 28.94768 | 3980 ft | 233 kts | 164° |
| 2026-05-03 20:39 | 41.05422 | 28.95129 | 3985 ft | 233 kts | 164° |
| 2026-05-03 20:39 | 41.03821 | 28.95490 | 3980 ft | 233 kts | 164° |
| 2026-05-03 20:39 | 41.02253 | 28.95844 | 4000 ft | 234 kts | 163° |
| 2026-05-03 20:39 | 41.00641 | 28.96207 | 3977 ft | 234 kts | 163° |
| 2026-05-03 20:40 | 40.99076 | 28.96552 | 3983 ft | 223 kts | 163° |
| 2026-05-03 20:40 | 40.97561 | 28.96886 | 3981 ft | 219 kts | 163° |
| 2026-05-03 20:40 | 40.96056 | 28.97223 | 3983 ft | 219 kts | 163° |
| 2026-05-03 20:40 | 40.94554 | 28.97560 | 3978 ft | 219 kts | 163° |
| 2026-05-03 20:41 | 40.93053 | 28.97896 | 3982 ft | 219 kts | 163° |
| 2026-05-03 20:41 | 40.91547 | 28.98233 | 3979 ft | 219 kts | 163° |
| 2026-05-03 20:41 | 40.90038 | 28.98573 | 3978 ft | 220 kts | 163° |
| 2026-05-03 20:41 | 40.88532 | 28.98910 | 3979 ft | 219 kts | 163° |
| 2026-05-03 20:42 | 40.87046 | 28.99243 | 3971 ft | 219 kts | 163° |
| 2026-05-03 20:42 | 40.85580 | 28.99564 | 3968 ft | 203 kts | 163° |
| 2026-05-03 20:42 | 40.84263 | 28.99839 | 3959 ft | 182 kts | 162° |
| 2026-05-03 20:42 | 40.83039 | 29.00135 | 3966 ft | 175 kts | 153° |
| 2026-05-03 20:43 | 40.81978 | 29.00792 | 3963 ft | 162 kts | 132° |
| 2026-05-03 20:43 | 40.81186 | 29.01758 | 3672 ft | 150 kts | 114° |
| 2026-05-03 20:43 | 40.80687 | 29.02908 | 3377 ft | 140 kts | 97° |
| 2026-05-03 20:43 | 40.80467 | 29.04071 | 3125 ft | 124 kts | 83° |
| 2026-05-03 20:44 | 40.80484 | 29.05169 | 2986 ft | 117 kts | 69° |
| 2026-05-03 20:44 | 40.80702 | 29.06185 | 2970 ft | 114 kts | 57° |
| 2026-05-03 20:44 | 40.81045 | 29.07119 | 2956 ft | 113 kts | 55° |
| 2026-05-03 20:44 | 40.81394 | 29.08057 | 2955 ft | 114 kts | 55° |
| 2026-05-03 20:45 | 40.81742 | 29.08995 | 2956 ft | 113 kts | 55° |
| 2026-05-03 20:45 | 40.82088 | 29.09927 | 2955 ft | 113 kts | 55° |
| 2026-05-03 20:45 | 40.82433 | 29.10856 | 2955 ft | 113 kts | 55° |
| 2026-05-03 20:45 | 40.82774 | 29.11775 | 2955 ft | 113 kts | 55° |
| 2026-05-03 20:46 | 40.83119 | 29.12704 | 2956 ft | 112 kts | 55° |
| 2026-05-03 20:46 | 40.83462 | 29.13628 | 2955 ft | 112 kts | 55° |
| 2026-05-03 20:46 | 40.83806 | 29.14556 | 2954 ft | 113 kts | 55° |
| 2026-05-03 20:46 | 40.84156 | 29.15498 | 2903 ft | 114 kts | 55° |
| 2026-05-03 20:47 | 40.84506 | 29.16443 | 2798 ft | 115 kts | 54° |
| 2026-05-03 20:47 | 40.84856 | 29.17390 | 2628 ft | 115 kts | 54° |
| 2026-05-03 20:47 | 40.85206 | 29.18336 | 2466 ft | 114 kts | 54° |
| 2026-05-03 20:47 | 40.85551 | 29.19267 | 2293 ft | 114 kts | 54° |
| 2026-05-03 20:48 | 40.85905 | 29.20223 | 2106 ft | 114 kts | 54° |
| 2026-05-03 20:48 | 40.86253 | 29.21164 | 1916 ft | 114 kts | 54° |
| 2026-05-03 20:48 | 40.86605 | 29.22114 | 1740 ft | 117 kts | 54° |
| 2026-05-03 20:48 | 40.86962 | 29.23080 | 1548 ft | 120 kts | 53° |
| 2026-05-03 20:49 | 40.87329 | 29.24072 | 1360 ft | 120 kts | 54° |
| 2026-05-03 20:49 | 40.87697 | 29.25069 | 1174 ft | 123 kts | 58° |
| 2026-05-03 20:49 | 40.88079 | 29.26102 | 955 ft | 126 kts | 58° |
| 2026-05-03 20:49 | 40.88458 | 29.27133 | 774 ft | 125 kts | 59° |
| 2026-05-03 20:50 | 40.88843 | 29.28177 | 572 ft | 126 kts | 60° |
| 2026-05-03 20:50 | 40.89225 | 29.29211 | 376 ft | 125 kts | 58° |
| 2026-05-03 20:50 | 40.89571 | 29.30134 | 319 ft | 80 kts | 64° |
| 2026-05-03 20:50 | 40.89745 | 29.30606 | 323 ft | 44 kts | 65° |
| 2026-05-03 20:51 | 40.89855 | 29.30903 | 321 ft | 33 kts | 62° |
| 2026-05-03 20:51 | 40.89954 | 29.31144 | 318 ft | 27 kts | 54° |
| 2026-05-03 20:51 | 40.90028 | 29.31246 | 320 ft | 5 kts | 40° |
| 2026-05-03 20:51 | 40.90058 | 29.31279 | 321 ft | 6 kts | 37° |
| 2026-05-03 20:52 | 40.90098 | 29.31317 | 321 ft | 8 kts | 34° |
| 2026-05-03 20:52 | 40.90134 | 29.31348 | 321 ft | 7 kts | 33° |
| 2026-05-03 20:52 | 40.90180 | 29.31387 | 321 ft | 9 kts | 33° |
| 2026-05-03 20:52 | 40.90227 | 29.31432 | 321 ft | 7 kts | 37° |
| 2026-05-03 20:53 | 40.90271 | 29.31479 | 320 ft | 9 kts | 37° |
| 2026-05-03 20:53 | 40.90328 | 29.31489 | 320 ft | 8 kts | 344° |
| 2026-05-03 20:53 | 40.90368 | 29.31468 | 321 ft | 7 kts | 337° |
| 2026-05-03 20:53 | 40.90415 | 29.31442 | 321 ft | 4 kts | 337° |
| 2026-05-03 20:54 | 40.90446 | 29.31443 | 321 ft | 6 kts | 21° |
| 2026-05-03 20:54 | 40.90439 | 29.31518 | 321 ft | 4 kts | 152° |
| 2026-05-03 20:54 | 40.90415 | 29.31534 | 321 ft | 3 kts | 154° |
| 2026-05-03 20:55 | 40.90405 | 29.31540 | 321 ft | 1 kts | 154° |